sensor_id;sensor_type;location;lat;lon;timestamp;temperature;humidity
837;DHT22;400;53.550;9.932;2022-11-20T00:00:52;3.90;99.90
837;DHT22;400;53.550;9.932;2022-11-20T00:03:19;3.90;99.90
837;DHT22;400;53.550;9.932;2022-11-20T00:05:46;4.00;99.90
837;DHT22;400;53.550;9.932;2022-11-20T00:08:14;4.00;99.90
837;DHT22;400;53.550;9.932;2022-11-20T00:10:43;4.00;99.90
837;DHT22;400;53.550;9.932;2022-11-20T00:13:25;4.00;99.90
837;DHT22;400;53.550;9.932;2022-11-20T00:15:57;4.00;99.90
837;DHT22;400;53.550;9.932;2022-11-20T00:18:28;4.00;99.90
837;DHT22;400;53.550;9.932;2022-11-20T00:21:03;4.00;99.90
837;DHT22;400;53.550;9.932;2022-11-20T00:23:32;4.10;99.90
837;DHT22;400;53.550;9.932;2022-11-20T00:26:04;4.10;99.90
837;DHT22;400;53.550;9.932;2022-11-20T00:28:35;4.00;99.90
837;DHT22;400;53.550;9.932;2022-11-20T00:31:07;4.00;99.90
837;DHT22;400;53.550;9.932;2022-11-20T00:33:37;4.00;99.90
837;DHT22;400;53.550;9.932;2022-11-20T00:36:06;4.00;99.90
837;DHT22;400;53.550;9.932;2022-11-20T00:38:35;4.00;99.90
837;DHT22;400;53.550;9.932;2022-11-20T00:41:04;4.00;99.90
837;DHT22;400;53.550;9.932;2022-11-20T00:43:32;4.00;99.90
837;DHT22;400;53.550;9.932;2022-11-20T00:46:06;4.00;99.90
837;DHT22;400;53.550;9.932;2022-11-20T00:48:36;4.00;99.90
837;DHT22;400;53.550;9.932;2022-11-20T00:51:12;4.00;99.90
837;DHT22;400;53.550;9.932;2022-11-20T00:53:40;4.10;99.90
837;DHT22;400;53.550;9.932;2022-11-20T00:56:13;4.00;99.90
837;DHT22;400;53.550;9.932;2022-11-20T00:58:45;4.00;99.90
837;DHT22;400;53.550;9.932;2022-11-20T01:01:16;4.10;99.90
837;DHT22;400;53.550;9.932;2022-11-20T01:03:45;4.00;99.90
837;DHT22;400;53.550;9.932;2022-11-20T01:06:14;4.00;99.90
837;DHT22;400;53.550;9.932;2022-11-20T01:08:44;4.10;99.90
837;DHT22;400;53.550;9.932;2022-11-20T01:11:13;4.00;99.90
837;DHT22;400;53.550;9.932;2022-11-20T01:13:42;4.20;99.90
837;DHT22;400;53.550;9.932;2022-11-20T01:16:12;4.30;99.90
837;DHT22;400;53.550;9.932;2022-11-20T01:18:40;4.20;99.90
837;DHT22;400;53.550;9.932;2022-11-20T01:21:12;4.30;99.90
837;DHT22;400;53.550;9.932;2022-11-20T01:23:41;4.20;99.90
837;DHT22;400;53.550;9.932;2022-11-20T01:26:11;4.10;99.90
837;DHT22;400;53.550;9.932;2022-11-20T01:28:38;4.00;99.90
837;DHT22;400;53.550;9.932;2022-11-20T01:31:11;3.90;99.90
837;DHT22;400;53.550;9.932;2022-11-20T01:33:42;3.90;99.90
837;DHT22;400;53.550;9.932;2022-11-20T01:36:18;4.00;99.90
837;DHT22;400;53.550;9.932;2022-11-20T01:38:51;3.90;99.90
837;DHT22;400;53.550;9.932;2022-11-20T01:41:23;4.00;99.90
837;DHT22;400;53.550;9.932;2022-11-20T01:44:10;3.90;99.90
837;DHT22;400;53.550;9.932;2022-11-20T01:46:40;4.00;99.90
837;DHT22;400;53.550;9.932;2022-11-20T01:49:17;3.90;99.90
837;DHT22;400;53.550;9.932;2022-11-20T01:51:51;4.00;99.90
837;DHT22;400;53.550;9.932;2022-11-20T01:54:23;3.90;99.90
837;DHT22;400;53.550;9.932;2022-11-20T01:56:56;4.00;99.90
837;DHT22;400;53.550;9.932;2022-11-20T01:59:28;4.00;99.90
837;DHT22;400;53.550;9.932;2022-11-20T02:01:56;4.00;99.90
837;DHT22;400;53.550;9.932;2022-11-20T02:04:23;3.90;99.90
837;DHT22;400;53.550;9.932;2022-11-20T02:06:55;4.00;99.90
837;DHT22;400;53.550;9.932;2022-11-20T02:09:23;4.00;99.90
837;DHT22;400;53.550;9.932;2022-11-20T02:11:52;3.90;99.90
837;DHT22;400;53.550;9.932;2022-11-20T02:14:21;3.90;99.90
837;DHT22;400;53.550;9.932;2022-11-20T02:16:48;4.00;99.90
837;DHT22;400;53.550;9.932;2022-11-20T02:19:22;4.00;99.90
837;DHT22;400;53.550;9.932;2022-11-20T02:21:56;3.90;99.90
837;DHT22;400;53.550;9.932;2022-11-20T02:24:26;3.90;99.90
837;DHT22;400;53.550;9.932;2022-11-20T02:26:56;3.90;99.90
837;DHT22;400;53.550;9.932;2022-11-20T02:29:26;3.90;99.90
837;DHT22;400;53.550;9.932;2022-11-20T02:31:55;4.00;99.90
837;DHT22;400;53.550;9.932;2022-11-20T02:34:23;4.00;99.90
837;DHT22;400;53.550;9.932;2022-11-20T02:36:52;4.00;99.90
837;DHT22;400;53.550;9.932;2022-11-20T02:39:20;4.20;99.90
837;DHT22;400;53.550;9.932;2022-11-20T02:41:50;4.30;99.90
837;DHT22;400;53.550;9.932;2022-11-20T02:44:18;4.40;99.90
837;DHT22;400;53.550;9.932;2022-11-20T02:46:45;4.40;99.90
837;DHT22;400;53.550;9.932;2022-11-20T02:49:12;4.30;99.90
837;DHT22;400;53.550;9.932;2022-11-20T02:51:39;4.20;99.90
837;DHT22;400;53.550;9.932;2022-11-20T02:54:06;4.10;99.90
837;DHT22;400;53.550;9.932;2022-11-20T02:56:33;4.00;99.90
837;DHT22;400;53.550;9.932;2022-11-20T02:59:01;4.20;99.90
837;DHT22;400;53.550;9.932;2022-11-20T03:01:28;4.10;99.90
837;DHT22;400;53.550;9.932;2022-11-20T03:03:55;4.00;99.90
837;DHT22;400;53.550;9.932;2022-11-20T03:06:22;4.00;99.90
837;DHT22;400;53.550;9.932;2022-11-20T03:08:50;4.10;99.90
837;DHT22;400;53.550;9.932;2022-11-20T03:11:17;4.20;99.90
837;DHT22;400;53.550;9.932;2022-11-20T03:13:43;4.30;99.90
837;DHT22;400;53.550;9.932;2022-11-20T03:16:13;4.30;99.90
837;DHT22;400;53.550;9.932;2022-11-20T03:18:41;4.30;99.90
837;DHT22;400;53.550;9.932;2022-11-20T03:21:09;4.20;99.90
837;DHT22;400;53.550;9.932;2022-11-20T03:23:37;4.30;99.90
837;DHT22;400;53.550;9.932;2022-11-20T03:26:12;4.20;99.90
837;DHT22;400;53.550;9.932;2022-11-20T03:28:40;4.10;99.90
837;DHT22;400;53.550;9.932;2022-11-20T03:31:08;4.10;99.90
837;DHT22;400;53.550;9.932;2022-11-20T03:33:38;4.30;99.90
837;DHT22;400;53.550;9.932;2022-11-20T03:36:06;4.30;99.90
837;DHT22;400;53.550;9.932;2022-11-20T03:38:34;4.40;99.90
837;DHT22;400;53.550;9.932;2022-11-20T03:41:03;4.40;99.90
837;DHT22;400;53.550;9.932;2022-11-20T03:43:31;4.50;99.90
837;DHT22;400;53.550;9.932;2022-11-20T03:45:58;4.40;99.90
837;DHT22;400;53.550;9.932;2022-11-20T03:48:30;4.40;99.90
837;DHT22;400;53.550;9.932;2022-11-20T03:51:08;4.30;99.90
837;DHT22;400;53.550;9.932;2022-11-20T03:53:35;4.20;99.90
837;DHT22;400;53.550;9.932;2022-11-20T03:56:07;4.20;99.90
837;DHT22;400;53.550;9.932;2022-11-20T03:58:34;4.20;99.90
837;DHT22;400;53.550;9.932;2022-11-20T04:01:09;4.10;99.90
837;DHT22;400;53.550;9.932;2022-11-20T04:03:37;4.00;99.90
837;DHT22;400;53.550;9.932;2022-11-20T04:06:06;3.90;99.90
837;DHT22;400;53.550;9.932;2022-11-20T04:08:35;3.90;99.90
837;DHT22;400;53.550;9.932;2022-11-20T04:11:09;4.00;99.90
837;DHT22;400;53.550;9.932;2022-11-20T04:13:37;4.00;99.90
837;DHT22;400;53.550;9.932;2022-11-20T04:16:04;4.00;99.90
837;DHT22;400;53.550;9.932;2022-11-20T04:18:32;4.00;99.90
837;DHT22;400;53.550;9.932;2022-11-20T04:20:59;4.00;99.90
837;DHT22;400;53.550;9.932;2022-11-20T04:23:26;4.00;99.90
837;DHT22;400;53.550;9.932;2022-11-20T04:25:55;3.90;99.90
837;DHT22;400;53.550;9.932;2022-11-20T04:28:26;3.90;99.90
837;DHT22;400;53.550;9.932;2022-11-20T04:30:53;3.90;99.90
837;DHT22;400;53.550;9.932;2022-11-20T04:33:20;3.80;99.90
837;DHT22;400;53.550;9.932;2022-11-20T04:35:47;3.80;99.90
837;DHT22;400;53.550;9.932;2022-11-20T04:38:14;3.80;99.90
837;DHT22;400;53.550;9.932;2022-11-20T04:40:41;3.80;99.90
837;DHT22;400;53.550;9.932;2022-11-20T04:43:09;3.80;99.90
837;DHT22;400;53.550;9.932;2022-11-20T04:45:36;3.70;99.90
837;DHT22;400;53.550;9.932;2022-11-20T04:48:04;3.80;99.90
837;DHT22;400;53.550;9.932;2022-11-20T04:50:31;3.80;99.90
837;DHT22;400;53.550;9.932;2022-11-20T04:52:58;3.90;99.90
837;DHT22;400;53.550;9.932;2022-11-20T04:55:24;3.90;99.90
837;DHT22;400;53.550;9.932;2022-11-20T04:57:51;4.00;99.90
837;DHT22;400;53.550;9.932;2022-11-20T05:00:25;3.90;99.90
837;DHT22;400;53.550;9.932;2022-11-20T05:02:52;3.90;99.90
837;DHT22;400;53.550;9.932;2022-11-20T05:05:21;3.80;99.90
837;DHT22;400;53.550;9.932;2022-11-20T05:07:48;3.80;99.90
837;DHT22;400;53.550;9.932;2022-11-20T05:10:15;3.80;99.90
837;DHT22;400;53.550;9.932;2022-11-20T05:12:42;3.80;99.90
837;DHT22;400;53.550;9.932;2022-11-20T05:15:10;3.60;99.90
837;DHT22;400;53.550;9.932;2022-11-20T05:17:39;3.60;99.90
837;DHT22;400;53.550;9.932;2022-11-20T05:20:07;3.60;99.90
837;DHT22;400;53.550;9.932;2022-11-20T05:22:35;3.70;99.90
837;DHT22;400;53.550;9.932;2022-11-20T05:25:02;3.60;99.90
837;DHT22;400;53.550;9.932;2022-11-20T05:27:29;3.70;99.90
837;DHT22;400;53.550;9.932;2022-11-20T05:29:56;3.70;99.90
837;DHT22;400;53.550;9.932;2022-11-20T05:32:23;3.80;99.90
837;DHT22;400;53.550;9.932;2022-11-20T05:34:52;4.00;99.90
837;DHT22;400;53.550;9.932;2022-11-20T05:37:19;4.20;99.90
837;DHT22;400;53.550;9.932;2022-11-20T05:39:46;4.20;99.90
837;DHT22;400;53.550;9.932;2022-11-20T05:42:13;4.30;99.90
837;DHT22;400;53.550;9.932;2022-11-20T05:44:56;4.20;99.90
837;DHT22;400;53.550;9.932;2022-11-20T05:47:24;4.30;99.90
837;DHT22;400;53.550;9.932;2022-11-20T05:49:52;4.40;99.90
837;DHT22;400;53.550;9.932;2022-11-20T05:52:19;4.30;99.90
837;DHT22;400;53.550;9.932;2022-11-20T05:54:48;4.30;99.90
837;DHT22;400;53.550;9.932;2022-11-20T05:57:15;4.30;99.90
837;DHT22;400;53.550;9.932;2022-11-20T05:59:42;4.20;99.90
837;DHT22;400;53.550;9.932;2022-11-20T06:02:09;4.30;99.90
837;DHT22;400;53.550;9.932;2022-11-20T06:04:36;4.30;99.90
837;DHT22;400;53.550;9.932;2022-11-20T06:07:06;4.30;99.90
837;DHT22;400;53.550;9.932;2022-11-20T06:09:33;4.30;99.90
837;DHT22;400;53.550;9.932;2022-11-20T06:11:59;4.20;99.90
837;DHT22;400;53.550;9.932;2022-11-20T06:14:26;4.20;99.90
837;DHT22;400;53.550;9.932;2022-11-20T06:16:53;4.20;99.90
837;DHT22;400;53.550;9.932;2022-11-20T06:19:20;4.10;99.90
837;DHT22;400;53.550;9.932;2022-11-20T06:21:48;4.20;99.90
837;DHT22;400;53.550;9.932;2022-11-20T06:24:16;4.30;99.90
837;DHT22;400;53.550;9.932;2022-11-20T06:26:44;4.40;99.90
837;DHT22;400;53.550;9.932;2022-11-20T06:29:11;4.40;99.90
837;DHT22;400;53.550;9.932;2022-11-20T06:31:37;4.50;99.90
837;DHT22;400;53.550;9.932;2022-11-20T06:34:04;4.30;99.90
837;DHT22;400;53.550;9.932;2022-11-20T06:36:32;4.30;99.90
837;DHT22;400;53.550;9.932;2022-11-20T06:39:02;4.20;99.90
837;DHT22;400;53.550;9.932;2022-11-20T06:41:31;4.20;99.90
837;DHT22;400;53.550;9.932;2022-11-20T06:43:58;4.10;99.90
837;DHT22;400;53.550;9.932;2022-11-20T06:46:25;4.00;99.90
837;DHT22;400;53.550;9.932;2022-11-20T06:48:51;3.80;99.90
837;DHT22;400;53.550;9.932;2022-11-20T06:51:21;3.70;99.90
837;DHT22;400;53.550;9.932;2022-11-20T06:53:51;3.60;99.90
837;DHT22;400;53.550;9.932;2022-11-20T06:56:17;3.60;99.90
837;DHT22;400;53.550;9.932;2022-11-20T06:58:46;3.50;99.90
837;DHT22;400;53.550;9.932;2022-11-20T07:01:14;3.40;99.90
837;DHT22;400;53.550;9.932;2022-11-20T07:03:41;3.40;99.90
837;DHT22;400;53.550;9.932;2022-11-20T07:06:08;3.30;99.90
837;DHT22;400;53.550;9.932;2022-11-20T07:08:36;3.40;99.90
837;DHT22;400;53.550;9.932;2022-11-20T07:11:05;3.30;99.90
837;DHT22;400;53.550;9.932;2022-11-20T07:13:33;3.20;99.90
837;DHT22;400;53.550;9.932;2022-11-20T07:16:03;3.30;99.90
837;DHT22;400;53.550;9.932;2022-11-20T07:18:30;3.30;99.90
837;DHT22;400;53.550;9.932;2022-11-20T07:21:00;3.30;99.90
837;DHT22;400;53.550;9.932;2022-11-20T07:23:27;3.30;99.90
837;DHT22;400;53.550;9.932;2022-11-20T07:25:54;3.30;99.90
837;DHT22;400;53.550;9.932;2022-11-20T07:28:22;3.30;99.90
837;DHT22;400;53.550;9.932;2022-11-20T07:30:52;3.40;99.90
837;DHT22;400;53.550;9.932;2022-11-20T07:33:24;3.30;99.90
837;DHT22;400;53.550;9.932;2022-11-20T07:35:51;3.30;99.90
837;DHT22;400;53.550;9.932;2022-11-20T07:38:18;3.40;99.90
837;DHT22;400;53.550;9.932;2022-11-20T07:40:45;3.50;99.90
837;DHT22;400;53.550;9.932;2022-11-20T07:43:13;3.50;99.90
837;DHT22;400;53.550;9.932;2022-11-20T07:45:43;3.40;99.90
837;DHT22;400;53.550;9.932;2022-11-20T07:48:11;3.50;99.90
837;DHT22;400;53.550;9.932;2022-11-20T07:50:39;3.50;99.90
837;DHT22;400;53.550;9.932;2022-11-20T07:53:06;3.50;99.90
837;DHT22;400;53.550;9.932;2022-11-20T07:55:33;3.60;99.90
837;DHT22;400;53.550;9.932;2022-11-20T07:58:00;3.50;99.90
837;DHT22;400;53.550;9.932;2022-11-20T08:00:27;3.60;99.90
837;DHT22;400;53.550;9.932;2022-11-20T08:02:54;3.70;99.90
837;DHT22;400;53.550;9.932;2022-11-20T08:05:21;3.80;99.90
837;DHT22;400;53.550;9.932;2022-11-20T08:07:51;3.80;99.90
837;DHT22;400;53.550;9.932;2022-11-20T08:10:18;3.60;99.90
837;DHT22;400;53.550;9.932;2022-11-20T08:12:46;3.60;99.90
837;DHT22;400;53.550;9.932;2022-11-20T08:15:31;3.60;99.90
837;DHT22;400;53.550;9.932;2022-11-20T08:18:05;3.60;99.90
837;DHT22;400;53.550;9.932;2022-11-20T08:20:34;3.70;99.90
837;DHT22;400;53.550;9.932;2022-11-20T08:23:05;3.60;99.90
837;DHT22;400;53.550;9.932;2022-11-20T08:25:32;3.60;99.90
837;DHT22;400;53.550;9.932;2022-11-20T08:28:01;3.50;99.90
837;DHT22;400;53.550;9.932;2022-11-20T08:30:28;3.70;99.90
837;DHT22;400;53.550;9.932;2022-11-20T08:33:00;3.80;99.90
837;DHT22;400;53.550;9.932;2022-11-20T08:35:27;3.90;99.90
837;DHT22;400;53.550;9.932;2022-11-20T08:37:57;4.00;99.90
837;DHT22;400;53.550;9.932;2022-11-20T08:40:28;3.80;99.90
837;DHT22;400;53.550;9.932;2022-11-20T08:43:02;3.80;99.90
837;DHT22;400;53.550;9.932;2022-11-20T08:45:32;3.70;99.90
837;DHT22;400;53.550;9.932;2022-11-20T08:48:00;3.70;99.90
837;DHT22;400;53.550;9.932;2022-11-20T08:50:27;3.80;99.90
837;DHT22;400;53.550;9.932;2022-11-20T08:52:55;3.80;99.90
837;DHT22;400;53.550;9.932;2022-11-20T08:55:22;3.90;99.90
837;DHT22;400;53.550;9.932;2022-11-20T08:57:50;3.90;99.90
837;DHT22;400;53.550;9.932;2022-11-20T09:00:17;3.90;99.90
837;DHT22;400;53.550;9.932;2022-11-20T09:02:48;3.90;99.90
837;DHT22;400;53.550;9.932;2022-11-20T09:05:20;3.80;99.90
837;DHT22;400;53.550;9.932;2022-11-20T09:07:55;3.90;99.90
837;DHT22;400;53.550;9.932;2022-11-20T09:10:22;4.00;99.90
837;DHT22;400;53.550;9.932;2022-11-20T09:12:51;4.10;99.90
837;DHT22;400;53.550;9.932;2022-11-20T09:15:18;4.30;99.90
837;DHT22;400;53.550;9.932;2022-11-20T09:17:51;4.20;99.90
837;DHT22;400;53.550;9.932;2022-11-20T09:20:18;4.10;99.90
837;DHT22;400;53.550;9.932;2022-11-20T09:22:45;4.20;99.90
837;DHT22;400;53.550;9.932;2022-11-20T09:25:12;4.10;99.90
837;DHT22;400;53.550;9.932;2022-11-20T09:27:39;4.30;99.90
837;DHT22;400;53.550;9.932;2022-11-20T09:30:09;4.30;99.90
837;DHT22;400;53.550;9.932;2022-11-20T09:32:38;4.40;99.90
837;DHT22;400;53.550;9.932;2022-11-20T09:35:06;4.30;99.90
837;DHT22;400;53.550;9.932;2022-11-20T09:37:33;4.30;99.90
837;DHT22;400;53.550;9.932;2022-11-20T09:40:02;4.30;99.90
837;DHT22;400;53.550;9.932;2022-11-20T09:42:41;4.30;99.90
837;DHT22;400;53.550;9.932;2022-11-20T09:45:23;4.10;99.90
837;DHT22;400;53.550;9.932;2022-11-20T09:48:08;4.10;99.90
837;DHT22;400;53.550;9.932;2022-11-20T09:50:43;3.90;99.90
837;DHT22;400;53.550;9.932;2022-11-20T09:53:24;3.90;99.90
837;DHT22;400;53.550;9.932;2022-11-20T09:56:01;4.00;99.90
837;DHT22;400;53.550;9.932;2022-11-20T09:58:40;4.20;99.90
837;DHT22;400;53.550;9.932;2022-11-20T10:01:15;4.20;99.90
837;DHT22;400;53.550;9.932;2022-11-20T10:03:50;4.00;99.90
837;DHT22;400;53.550;9.932;2022-11-20T10:06:24;4.10;99.90
837;DHT22;400;53.550;9.932;2022-11-20T10:09:05;4.30;99.90
837;DHT22;400;53.550;9.932;2022-11-20T10:11:44;4.30;99.90
837;DHT22;400;53.550;9.932;2022-11-20T10:14:21;4.30;99.90
837;DHT22;400;53.550;9.932;2022-11-20T10:17:02;4.30;99.90
837;DHT22;400;53.550;9.932;2022-11-20T10:19:42;4.30;99.90
837;DHT22;400;53.550;9.932;2022-11-20T10:22:24;4.50;99.90
837;DHT22;400;53.550;9.932;2022-11-20T10:25:03;4.60;99.90
837;DHT22;400;53.550;9.932;2022-11-20T10:27:53;4.70;99.90
837;DHT22;400;53.550;9.932;2022-11-20T10:30:24;4.80;99.90
837;DHT22;400;53.550;9.932;2022-11-20T10:32:56;4.80;99.90
837;DHT22;400;53.550;9.932;2022-11-20T10:35:27;4.80;99.90
837;DHT22;400;53.550;9.932;2022-11-20T10:37:59;4.90;99.90
837;DHT22;400;53.550;9.932;2022-11-20T10:40:34;4.90;99.90
837;DHT22;400;53.550;9.932;2022-11-20T10:43:08;5.00;99.90
837;DHT22;400;53.550;9.932;2022-11-20T10:45:45;4.90;99.90
837;DHT22;400;53.550;9.932;2022-11-20T10:48:19;4.90;99.90
837;DHT22;400;53.550;9.932;2022-11-20T10:51:01;4.80;99.90
837;DHT22;400;53.550;9.932;2022-11-20T10:53:46;4.80;99.90
837;DHT22;400;53.550;9.932;2022-11-20T10:56:20;4.70;99.90
837;DHT22;400;53.550;9.932;2022-11-20T10:59:04;4.70;99.90
837;DHT22;400;53.550;9.932;2022-11-20T11:01:40;4.70;99.90
837;DHT22;400;53.550;9.932;2022-11-20T11:04:28;4.80;99.90
837;DHT22;400;53.550;9.932;2022-11-20T11:07:05;4.70;99.90
837;DHT22;400;53.550;9.932;2022-11-20T11:09:39;4.70;99.90
837;DHT22;400;53.550;9.932;2022-11-20T11:12:09;4.80;99.90
837;DHT22;400;53.550;9.932;2022-11-20T11:14:48;4.80;99.90
837;DHT22;400;53.550;9.932;2022-11-20T11:17:34;4.90;99.90
837;DHT22;400;53.550;9.932;2022-11-20T11:20:15;4.80;99.90
837;DHT22;400;53.550;9.932;2022-11-20T11:22:45;4.80;99.90
837;DHT22;400;53.550;9.932;2022-11-20T11:25:28;4.60;99.90
837;DHT22;400;53.550;9.932;2022-11-20T11:28:00;4.70;99.90
837;DHT22;400;53.550;9.932;2022-11-20T11:30:30;4.70;99.90
837;DHT22;400;53.550;9.932;2022-11-20T11:33:19;4.70;99.90
837;DHT22;400;53.550;9.932;2022-11-20T11:35:50;4.80;99.90
837;DHT22;400;53.550;9.932;2022-11-20T11:38:21;4.90;99.90
837;DHT22;400;53.550;9.932;2022-11-20T11:40:49;5.00;99.90
837;DHT22;400;53.550;9.932;2022-11-20T11:43:22;5.00;99.90
837;DHT22;400;53.550;9.932;2022-11-20T11:46:24;4.70;99.90
837;DHT22;400;53.550;9.932;2022-11-20T11:49:11;4.80;99.90
837;DHT22;400;53.550;9.932;2022-11-20T11:54:45;4.80;99.90
837;DHT22;400;53.550;9.932;2022-11-20T11:57:26;4.90;99.90
837;DHT22;400;53.550;9.932;2022-11-20T12:00:03;4.80;99.90
837;DHT22;400;53.550;9.932;2022-11-20T12:02:37;4.90;99.90
837;DHT22;400;53.550;9.932;2022-11-20T12:05:17;4.90;99.90
837;DHT22;400;53.550;9.932;2022-11-20T12:07:48;4.80;99.90
837;DHT22;400;53.550;9.932;2022-11-20T12:10:22;4.80;99.90
837;DHT22;400;53.550;9.932;2022-11-20T12:13:09;4.80;99.90
837;DHT22;400;53.550;9.932;2022-11-20T12:15:48;4.80;99.90
837;DHT22;400;53.550;9.932;2022-11-20T12:18:20;4.80;99.90
837;DHT22;400;53.550;9.932;2022-11-20T12:20:57;4.80;99.90
837;DHT22;400;53.550;9.932;2022-11-20T12:23:39;4.70;99.90
837;DHT22;400;53.550;9.932;2022-11-20T12:26:20;4.70;99.90
837;DHT22;400;53.550;9.932;2022-11-20T12:29:04;4.80;99.90
837;DHT22;400;53.550;9.932;2022-11-20T12:34:58;4.80;99.90
837;DHT22;400;53.550;9.932;2022-11-20T12:37:36;4.80;99.90
837;DHT22;400;53.550;9.932;2022-11-20T12:40:18;4.80;99.90
837;DHT22;400;53.550;9.932;2022-11-20T12:42:58;4.90;99.90
837;DHT22;400;53.550;9.932;2022-11-20T12:46:09;4.90;99.90
837;DHT22;400;53.550;9.932;2022-11-20T12:49:11;5.00;99.90
837;DHT22;400;53.550;9.932;2022-11-20T12:57:50;5.30;99.90
837;DHT22;400;53.550;9.932;2022-11-20T13:00:23;5.30;99.90
837;DHT22;400;53.550;9.932;2022-11-20T13:05:53;5.30;99.90
837;DHT22;400;53.550;9.932;2022-11-20T13:08:25;5.30;99.90
837;DHT22;400;53.550;9.932;2022-11-20T13:10:59;5.30;99.90
837;DHT22;400;53.550;9.932;2022-11-20T13:13:35;5.20;99.90
837;DHT22;400;53.550;9.932;2022-11-20T13:16:10;5.20;99.90
837;DHT22;400;53.550;9.932;2022-11-20T13:18:45;5.00;99.90
837;DHT22;400;53.550;9.932;2022-11-20T13:21:23;4.90;99.90
837;DHT22;400;53.550;9.932;2022-11-20T13:24:04;5.10;99.90
837;DHT22;400;53.550;9.932;2022-11-20T13:26:32;5.20;99.90
837;DHT22;400;53.550;9.932;2022-11-20T13:29:10;5.30;99.90
837;DHT22;400;53.550;9.932;2022-11-20T13:31:43;5.40;99.90
837;DHT22;400;53.550;9.932;2022-11-20T13:34:13;5.30;99.90
837;DHT22;400;53.550;9.932;2022-11-20T13:36:50;5.20;99.90
837;DHT22;400;53.550;9.932;2022-11-20T13:39:26;5.20;99.90
837;DHT22;400;53.550;9.932;2022-11-20T13:41:54;5.30;99.90
837;DHT22;400;53.550;9.932;2022-11-20T13:44:27;5.30;99.90
837;DHT22;400;53.550;9.932;2022-11-20T13:46:55;5.30;99.90
837;DHT22;400;53.550;9.932;2022-11-20T13:49:26;5.30;99.90
837;DHT22;400;53.550;9.932;2022-11-20T13:52:05;5.30;99.90
837;DHT22;400;53.550;9.932;2022-11-20T13:54:55;5.30;99.90
837;DHT22;400;53.550;9.932;2022-11-20T14:00:26;5.30;99.90
837;DHT22;400;53.550;9.932;2022-11-20T14:03:15;5.30;99.90
837;DHT22;400;53.550;9.932;2022-11-20T14:05:51;5.30;99.90
837;DHT22;400;53.550;9.932;2022-11-20T14:08:26;5.30;99.90
837;DHT22;400;53.550;9.932;2022-11-20T14:11:05;5.30;99.90
837;DHT22;400;53.550;9.932;2022-11-20T14:13:32;5.30;99.90
837;DHT22;400;53.550;9.932;2022-11-20T14:16:00;5.30;99.90
837;DHT22;400;53.550;9.932;2022-11-20T14:18:27;5.20;99.90
837;DHT22;400;53.550;9.932;2022-11-20T14:20:54;5.30;99.90
837;DHT22;400;53.550;9.932;2022-11-20T14:23:27;5.40;99.90
837;DHT22;400;53.550;9.932;2022-11-20T14:25:54;5.50;99.90
837;DHT22;400;53.550;9.932;2022-11-20T14:28:26;5.50;99.90
837;DHT22;400;53.550;9.932;2022-11-20T14:31:01;5.50;99.90
837;DHT22;400;53.550;9.932;2022-11-20T14:33:33;5.50;99.90
837;DHT22;400;53.550;9.932;2022-11-20T14:36:03;5.20;99.90
837;DHT22;400;53.550;9.932;2022-11-20T14:38:32;5.10;99.90
837;DHT22;400;53.550;9.932;2022-11-20T14:41:07;5.10;99.90
837;DHT22;400;53.550;9.932;2022-11-20T14:43:34;5.10;99.90
837;DHT22;400;53.550;9.932;2022-11-20T14:46:07;5.20;99.90
837;DHT22;400;53.550;9.932;2022-11-20T14:48:41;5.30;99.90
837;DHT22;400;53.550;9.932;2022-11-20T14:51:24;5.30;99.90
837;DHT22;400;53.550;9.932;2022-11-20T14:53:55;5.20;99.90
837;DHT22;400;53.550;9.932;2022-11-20T14:56:23;5.20;99.90
837;DHT22;400;53.550;9.932;2022-11-20T14:58:58;5.20;99.90
837;DHT22;400;53.550;9.932;2022-11-20T15:01:32;5.20;99.90
837;DHT22;400;53.550;9.932;2022-11-20T15:04:10;5.30;99.90
837;DHT22;400;53.550;9.932;2022-11-20T15:06:48;5.20;99.90
837;DHT22;400;53.550;9.932;2022-11-20T15:09:15;5.10;99.90
837;DHT22;400;53.550;9.932;2022-11-20T15:11:53;5.20;99.90
837;DHT22;400;53.550;9.932;2022-11-20T15:14:21;5.20;99.90
837;DHT22;400;53.550;9.932;2022-11-20T15:16:52;5.10;99.90
837;DHT22;400;53.550;9.932;2022-11-20T15:19:22;5.10;99.90
837;DHT22;400;53.550;9.932;2022-11-20T15:21:56;5.10;99.90
837;DHT22;400;53.550;9.932;2022-11-20T15:24:25;5.10;99.90
837;DHT22;400;53.550;9.932;2022-11-20T15:26:52;5.20;99.90
837;DHT22;400;53.550;9.932;2022-11-20T15:29:20;5.30;99.90
837;DHT22;400;53.550;9.932;2022-11-20T15:31:54;5.30;99.90
837;DHT22;400;53.550;9.932;2022-11-20T15:34:22;5.20;99.90
837;DHT22;400;53.550;9.932;2022-11-20T15:36:49;5.10;99.90
837;DHT22;400;53.550;9.932;2022-11-20T15:39:16;5.00;99.90
837;DHT22;400;53.550;9.932;2022-11-20T15:41:43;5.10;99.90
837;DHT22;400;53.550;9.932;2022-11-20T15:44:10;5.10;99.90
837;DHT22;400;53.550;9.932;2022-11-20T15:46:39;5.10;99.90
837;DHT22;400;53.550;9.932;2022-11-20T15:49:12;5.10;99.90
837;DHT22;400;53.550;9.932;2022-11-20T15:51:42;5.20;99.90
837;DHT22;400;53.550;9.932;2022-11-20T15:54:11;5.20;99.90
837;DHT22;400;53.550;9.932;2022-11-20T15:56:38;5.00;99.90
837;DHT22;400;53.550;9.932;2022-11-20T15:59:06;4.90;99.90
837;DHT22;400;53.550;9.932;2022-11-20T16:01:33;4.80;99.90
837;DHT22;400;53.550;9.932;2022-11-20T16:04:04;4.90;99.90
837;DHT22;400;53.550;9.932;2022-11-20T16:06:33;4.80;99.90
837;DHT22;400;53.550;9.932;2022-11-20T16:08:59;4.90;99.90
837;DHT22;400;53.550;9.932;2022-11-20T16:11:26;5.00;99.90
837;DHT22;400;53.550;9.932;2022-11-20T16:13:54;5.00;99.90
837;DHT22;400;53.550;9.932;2022-11-20T16:16:39;5.10;99.90
837;DHT22;400;53.550;9.932;2022-11-20T16:19:10;5.10;99.90
837;DHT22;400;53.550;9.932;2022-11-20T16:21:38;5.20;99.90
837;DHT22;400;53.550;9.932;2022-11-20T16:24:08;5.30;99.90
837;DHT22;400;53.550;9.932;2022-11-20T16:26:36;5.40;99.90
837;DHT22;400;53.550;9.932;2022-11-20T16:29:08;5.40;99.90
837;DHT22;400;53.550;9.932;2022-11-20T16:31:36;5.40;99.90
837;DHT22;400;53.550;9.932;2022-11-20T16:34:06;5.40;99.90
837;DHT22;400;53.550;9.932;2022-11-20T16:36:33;5.50;99.90
837;DHT22;400;53.550;9.932;2022-11-20T16:39:03;5.50;99.90
837;DHT22;400;53.550;9.932;2022-11-20T16:41:31;5.40;99.90
837;DHT22;400;53.550;9.932;2022-11-20T16:44:01;5.50;99.90
837;DHT22;400;53.550;9.932;2022-11-20T16:46:31;5.50;99.90
837;DHT22;400;53.550;9.932;2022-11-20T16:49:03;5.50;99.90
837;DHT22;400;53.550;9.932;2022-11-20T16:51:34;5.50;99.90
837;DHT22;400;53.550;9.932;2022-11-20T16:54:06;5.60;99.90
837;DHT22;400;53.550;9.932;2022-11-20T16:56:35;5.50;99.90
837;DHT22;400;53.550;9.932;2022-11-20T16:59:03;5.60;99.90
837;DHT22;400;53.550;9.932;2022-11-20T17:01:36;5.40;99.90
837;DHT22;400;53.550;9.932;2022-11-20T17:04:07;5.30;99.90
837;DHT22;400;53.550;9.932;2022-11-20T17:06:37;5.20;99.90
837;DHT22;400;53.550;9.932;2022-11-20T17:09:08;5.20;99.90
837;DHT22;400;53.550;9.932;2022-11-20T17:11:37;5.10;99.90
837;DHT22;400;53.550;9.932;2022-11-20T17:14:05;5.00;99.90
837;DHT22;400;53.550;9.932;2022-11-20T17:16:33;5.00;99.90
837;DHT22;400;53.550;9.932;2022-11-20T17:19:03;5.00;99.90
837;DHT22;400;53.550;9.932;2022-11-20T17:21:34;5.20;99.90
837;DHT22;400;53.550;9.932;2022-11-20T17:24:09;5.20;99.90
837;DHT22;400;53.550;9.932;2022-11-20T17:26:43;5.30;99.90
837;DHT22;400;53.550;9.932;2022-11-20T17:29:15;5.20;99.90
837;DHT22;400;53.550;9.932;2022-11-20T17:31:44;5.30;99.90
837;DHT22;400;53.550;9.932;2022-11-20T17:34:15;5.30;99.90
837;DHT22;400;53.550;9.932;2022-11-20T17:36:45;5.40;99.90